Time,TemperatureF,DewpointF,PressureIn,WindDirection,WindDirectionDegrees,WindSpeedMPH,WindSpeedGustMPH,Humidity,HourlyPrecipIn,Conditions,Clouds,dailyrainin,SoftwareType,DateUTC
2013-01-25 00:02:00,27.9,8.8,29.88,ESE,121,1.0,7.0,44,0.00,,,0.00,Wunderground v.1.15,2013-01-25 06:02:00,
2013-01-25 00:07:00,27.9,9.3,29.87,ESE,108,3.0,7.0,45,0.00,,,0.00,Wunderground v.1.15,2013-01-25 06:07:00,
2013-01-25 00:13:00,27.9,9.3,29.86,ESE,108,4.0,5.0,45,0.00,,,0.00,Wunderground v.1.15,2013-01-25 06:13:00,
2013-01-25 00:19:00,27.8,9.2,29.86,ESE,104,4.0,6.0,45,0.00,,,0.00,Wunderground v.1.15,2013-01-25 06:19:00,
2013-01-25 00:24:00,27.9,9.3,29.86,East,86,6.0,11.0,45,0.00,,,0.00,Wunderground v.1.15,2013-01-25 06:24:00,
2013-01-25 00:30:00,28.0,9.4,29.86,SSE,163,2.0,3.0,45,0.00,,,0.00,Wunderground v.1.15,2013-01-25 06:30:00,
2013-01-25 00:35:00,28.0,8.9,29.87,ESE,108,3.0,4.0,44,0.00,,,0.00,Wunderground v.1.15,2013-01-25 06:35:00,
2013-01-25 00:40:00,27.9,8.3,29.87,East,94,4.0,4.0,43,0.00,,,0.00,Wunderground v.1.15,2013-01-25 06:40:00,
2013-01-25 00:45:00,28.0,8.4,29.87,ESE,110,4.0,4.0,43,0.00,,,0.00,Wunderground v.1.15,2013-01-25 06:45:00,
2013-01-25 00:51:00,28.1,9.5,29.86,SE,145,3.0,6.0,45,0.00,,,0.00,Wunderground v.1.15,2013-01-25 06:51:00,
2013-01-25 00:56:00,28.1,9.5,29.86,SSE,152,2.0,6.0,45,0.00,,,0.00,Wunderground v.1.15,2013-01-25 06:56:00,
2013-01-25 01:02:00,27.9,8.3,29.85,SE,141,3.0,5.0,43,0.00,,,0.00,Wunderground v.1.15,2013-01-25 07:02:00,
2013-01-25 01:07:00,27.8,8.2,29.84,SSE,160,3.0,5.0,43,0.00,,,0.00,Wunderground v.1.15,2013-01-25 07:07:00,
2013-01-25 01:13:00,27.6,7.5,29.84,ESE,122,3.0,6.0,42,0.00,,,0.00,Wunderground v.1.15,2013-01-25 07:13:00,
2013-01-25 01:18:00,27.5,7.9,29.84,SE,138,4.0,6.0,43,0.00,,,0.00,Wunderground v.1.15,2013-01-25 07:18:00,
2013-01-25 01:23:00,27.5,7.4,29.84,SE,134,3.0,5.0,42,0.00,,,0.00,Wunderground v.1.15,2013-01-25 07:23:00,
2013-01-25 01:28:00,27.4,7.3,29.84,East,99,4.0,5.0,42,0.00,,,0.00,Wunderground v.1.15,2013-01-25 07:28:00,
2013-01-25 01:34:00,27.5,7.4,29.84,SE,132,4.0,4.0,42,0.00,,,0.00,Wunderground v.1.15,2013-01-25 07:34:00,
2013-01-25 01:39:00,27.5,7.9,29.83,SE,140,3.0,7.0,43,0.00,,,0.00,Wunderground v.1.15,2013-01-25 07:39:00,
2013-01-25 01:45:00,27.7,8.1,29.84,East,92,2.0,4.0,43,0.00,,,0.00,Wunderground v.1.15,2013-01-25 07:45:00,
2013-01-25 01:50:00,27.7,8.6,29.84,SE,129,0.0,3.0,44,0.00,,,0.00,Wunderground v.1.15,2013-01-25 07:50:00,
2013-01-25 01:55:00,27.8,9.7,29.85,ESE,117,1.0,3.0,46,0.00,,,0.00,Wunderground v.1.15,2013-01-25 07:55:00,
2013-01-25 02:00:00,27.9,10.2,29.84,East,83,3.0,3.0,47,0.00,,,0.00,Wunderground v.1.15,2013-01-25 08:00:00,
2013-01-25 02:05:00,27.7,11.9,29.84,ENE,69,3.0,6.0,51,0.00,,,0.00,Wunderground v.1.15,2013-01-25 08:05:00,
2013-01-25 02:10:00,27.4,12.9,29.83,ESE,122,3.0,5.0,54,0.00,,,0.00,Wunderground v.1.15,2013-01-25 08:10:00,
2013-01-25 02:15:00,27.1,12.6,29.83,ESE,113,2.0,5.0,54,0.00,,,0.00,Wunderground v.1.15,2013-01-25 08:15:00,
2013-01-25 02:20:00,27.0,12.1,29.83,ESE,108,0.0,3.0,53,0.00,,,0.00,Wunderground v.1.15,2013-01-25 08:20:00,
2013-01-25 02:25:00,27.0,12.5,29.83,ESE,105,0.0,5.0,54,0.00,,,0.00,Wunderground v.1.15,2013-01-25 08:25:00,
2013-01-25 02:30:00,26.8,13.2,29.83,ESE,108,1.0,2.0,56,0.00,,,0.00,Wunderground v.1.15,2013-01-25 08:30:00,
2013-01-25 02:35:00,26.6,13.8,29.82,ESE,103,2.0,6.0,58,0.00,,,0.00,Wunderground v.1.15,2013-01-25 08:35:00,
2013-01-25 02:40:00,26.4,14.4,29.82,NW,305,1.0,4.0,60,0.00,,,0.00,Wunderground v.1.15,2013-01-25 08:40:00,
2013-01-25 02:45:00,26.4,14.8,29.82,East,90,1.0,7.0,61,0.00,,,0.00,Wunderground v.1.15,2013-01-25 08:45:00,
2013-01-25 02:50:00,26.4,14.4,29.82,NE,56,4.0,4.0,60,0.00,,,0.00,Wunderground v.1.15,2013-01-25 08:50:00,
2013-01-25 02:55:00,26.4,14.8,29.82,ENE,77,2.0,8.0,61,0.00,,,0.00,Wunderground v.1.15,2013-01-25 08:55:00,
2013-01-25 03:00:00,26.5,14.9,29.81,ENE,74,3.0,4.0,61,0.00,,,0.00,Wunderground v.1.15,2013-01-25 09:00:00,
2013-01-25 03:05:00,26.4,14.8,29.80,ENE,60,4.0,6.0,61,0.00,,,0.00,Wunderground v.1.15,2013-01-25 09:05:00,
2013-01-25 03:10:00,26.4,14.8,29.79,ENE,72,6.0,6.0,61,0.00,,,0.00,Wunderground v.1.15,2013-01-25 09:10:00,
2013-01-25 03:15:00,26.4,15.1,29.79,NE,53,2.0,7.0,62,0.00,,,0.00,Wunderground v.1.15,2013-01-25 09:15:00,
2013-01-25 03:20:00,26.5,16.0,29.79,NE,37,5.0,5.0,64,0.00,,,0.00,Wunderground v.1.15,2013-01-25 09:20:00,
2013-01-25 03:25:00,26.2,16.0,29.79,North,355,1.0,8.0,65,0.00,,,0.00,Wunderground v.1.15,2013-01-25 09:25:00,
2013-01-25 03:30:00,26.1,15.9,29.79,East,79,2.0,4.0,65,0.00,,,0.00,Wunderground v.1.15,2013-01-25 09:30:00,
2013-01-25 03:35:00,26.0,15.8,29.78,NE,40,3.0,6.0,65,0.00,,,0.00,Wunderground v.1.15,2013-01-25 09:35:00,
2013-01-25 03:40:00,25.8,16.3,29.78,ENE,70,3.0,5.0,67,0.00,,,0.00,Wunderground v.1.15,2013-01-25 09:40:00,
2013-01-25 03:45:00,25.6,17.2,29.78,NE,51,7.0,7.0,70,0.00,,,0.00,Wunderground v.1.15,2013-01-25 09:45:00,
2013-01-25 03:50:00,25.4,18.3,29.77,ENE,75,1.0,3.0,74,0.00,,,0.00,Wunderground v.1.15,2013-01-25 09:50:00,
2013-01-25 03:55:00,25.2,18.1,29.79,North,353,5.0,6.0,74,0.00,,,0.00,Wunderground v.1.15,2013-01-25 09:55:00,
2013-01-25 04:00:00,25.0,18.5,29.77,NNE,23,2.0,4.0,76,0.00,,,0.00,Wunderground v.1.15,2013-01-25 10:00:00,
2013-01-25 04:05:00,24.8,18.6,29.77,ENE,71,3.0,8.0,77,0.00,,,0.01,Wunderground v.1.15,2013-01-25 10:05:00,
2013-01-25 04:10:00,24.6,18.7,29.77,NE,54,6.0,8.0,78,0.00,,,0.01,Wunderground v.1.15,2013-01-25 10:10:00,
2013-01-25 04:15:00,24.5,18.6,29.78,North,11,4.0,9.0,78,0.00,,,0.01,Wunderground v.1.15,2013-01-25 10:15:00,
2013-01-25 04:20:00,24.5,18.9,29.77,ENE,73,2.0,5.0,79,0.00,,,0.01,Wunderground v.1.15,2013-01-25 10:20:00,
2013-01-25 04:25:00,24.5,18.3,29.77,North,353,3.0,7.0,77,0.00,,,0.01,Wunderground v.1.15,2013-01-25 10:25:00,
2013-01-25 04:30:00,24.4,18.5,29.76,NNE,12,2.0,5.0,78,0.00,,,0.01,Wunderground v.1.15,2013-01-25 10:30:00,
2013-01-25 04:35:00,24.5,18.9,29.75,ENE,71,2.0,7.0,79,0.00,,,0.01,Wunderground v.1.15,2013-01-25 10:35:00,
2013-01-25 04:40:00,24.4,18.5,29.75,ENE,65,5.0,6.0,78,0.00,,,0.01,Wunderground v.1.15,2013-01-25 10:40:00,
2013-01-25 04:45:00,24.5,18.9,29.75,NE,49,3.0,6.0,79,0.00,,,0.01,Wunderground v.1.15,2013-01-25 10:45:00,
2013-01-25 04:50:00,24.4,18.5,29.75,ENE,77,2.0,3.0,78,0.00,,,0.01,Wunderground v.1.15,2013-01-25 10:50:00,
2013-01-25 04:55:00,24.4,18.8,29.76,NE,56,1.0,5.0,79,0.00,,,0.01,Wunderground v.1.15,2013-01-25 10:55:00,
2013-01-25 05:00:00,24.5,18.9,29.75,ESE,104,0.0,4.0,79,0.00,,,0.01,Wunderground v.1.15,2013-01-25 11:00:00,
2013-01-25 05:05:00,24.4,18.8,29.76,NE,41,5.0,6.0,79,0.00,,,0.01,Wunderground v.1.15,2013-01-25 11:05:00,
2013-01-25 05:10:00,24.4,19.1,29.77,NNE,18,3.0,5.0,80,0.00,,,0.01,Wunderground v.1.15,2013-01-25 11:10:00,
2013-01-25 05:15:00,24.5,19.2,29.77,NNE,19,4.0,5.0,80,0.00,,,0.01,Wunderground v.1.15,2013-01-25 11:15:00,
2013-01-25 05:20:00,24.5,19.5,29.76,ENE,69,2.0,3.0,81,0.00,,,0.01,Wunderground v.1.15,2013-01-25 11:20:00,
2013-01-25 05:25:00,24.4,19.1,29.76,ENE,62,1.0,4.0,80,0.00,,,0.01,Wunderground v.1.15,2013-01-25 11:25:00,
2013-01-25 05:30:00,24.5,19.8,29.75,East,90,2.0,3.0,82,0.00,,,0.01,Wunderground v.1.15,2013-01-25 11:30:00,
2013-01-25 05:35:00,24.4,19.7,29.75,East,83,0.0,3.0,82,0.00,,,0.01,Wunderground v.1.15,2013-01-25 11:35:00,
2013-01-25 05:40:00,24.3,19.3,29.74,ENE,72,1.0,7.0,81,0.00,,,0.01,Wunderground v.1.15,2013-01-25 11:40:00,
2013-01-25 05:45:00,24.4,20.0,29.75,ESE,104,1.0,7.0,83,0.00,,,0.01,Wunderground v.1.15,2013-01-25 11:45:00,
2013-01-25 05:50:00,24.4,20.0,29.75,NE,40,2.0,3.0,83,0.00,,,0.01,Wunderground v.1.15,2013-01-25 11:50:00,
2013-01-25 05:55:00,24.5,20.1,29.75,ESE,122,1.0,3.0,83,0.00,,,0.01,Wunderground v.1.15,2013-01-25 11:55:00,
2013-01-25 06:00:00,24.5,20.4,29.75,ESE,105,1.0,2.0,84,0.00,,,0.01,Wunderground v.1.15,2013-01-25 12:00:00,
2013-01-25 06:05:00,24.6,20.2,29.75,East,92,2.0,5.0,83,0.00,,,0.01,Wunderground v.1.15,2013-01-25 12:05:00,
2013-01-25 06:10:00,24.6,20.2,29.76,SSE,158,0.0,2.0,83,0.00,,,0.01,Wunderground v.1.15,2013-01-25 12:10:00,
2013-01-25 06:15:00,24.6,20.2,29.76,NE,55,0.0,3.0,83,0.00,,,0.01,Wunderground v.1.15,2013-01-25 12:15:00,
2013-01-25 06:20:00,24.6,20.5,29.75,ENE,77,3.0,3.0,84,0.00,,,0.01,Wunderground v.1.15,2013-01-25 12:20:00,
2013-01-25 06:25:00,24.7,20.8,29.75,NE,52,4.0,4.0,85,0.00,,,0.01,Wunderground v.1.15,2013-01-25 12:25:00,
2013-01-25 06:30:00,24.9,21.3,29.75,East,97,0.0,1.0,86,0.00,,,0.01,Wunderground v.1.15,2013-01-25 12:30:00,
2013-01-25 06:35:00,24.9,21.0,29.76,ESE,106,1.0,4.0,85,0.00,,,0.01,Wunderground v.1.15,2013-01-25 12:35:00,
2013-01-25 06:40:00,24.6,20.7,29.76,East,96,3.0,3.0,85,0.00,,,0.01,Wunderground v.1.15,2013-01-25 12:40:00,
2013-01-25 06:45:00,24.5,20.9,29.76,SE,131,0.0,3.0,86,0.00,,,0.01,Wunderground v.1.15,2013-01-25 12:45:00,
2013-01-25 06:50:00,24.5,20.9,29.75,ESE,104,1.0,3.0,86,0.00,,,0.01,Wunderground v.1.15,2013-01-25 12:50:00,
2013-01-25 06:56:00,24.5,21.2,29.75,SSW,197,0.0,3.0,87,0.00,,,0.01,Wunderground v.1.15,2013-01-25 12:56:00,
2013-01-25 07:01:00,24.5,21.5,29.75,SE,126,0.0,1.0,88,0.00,,,0.01,Wunderground v.1.15,2013-01-25 13:01:00,
2013-01-25 07:06:00,24.4,21.1,29.75,ESE,115,0.0,2.0,87,0.00,,,0.01,Wunderground v.1.15,2013-01-25 13:06:00,
2013-01-25 07:11:00,24.3,21.3,29.75,ENE,64,1.0,1.0,88,0.00,,,0.01,Wunderground v.1.15,2013-01-25 13:11:00,
2013-01-25 07:16:00,24.3,21.5,29.75,ESE,107,2.0,4.0,89,0.00,,,0.01,Wunderground v.1.15,2013-01-25 13:16:00,
2013-01-25 07:21:00,24.2,21.4,29.76,NE,56,0.0,1.0,89,0.00,,,0.00,Wunderground v.1.15,2013-01-25 13:21:00,
2013-01-25 07:26:00,24.2,21.7,29.75,NNE,31,1.0,2.0,90,0.00,,,0.00,Wunderground v.1.15,2013-01-25 13:26:00,
2013-01-25 07:31:00,24.2,21.7,29.75,NE,42,0.0,3.0,90,0.00,,,0.00,Wunderground v.1.15,2013-01-25 13:31:00,
2013-01-25 07:36:00,24.2,22.0,29.76,NE,40,2.0,4.0,91,0.00,,,0.00,Wunderground v.1.15,2013-01-25 13:36:00,
2013-01-25 07:41:00,24.2,22.0,29.76,North,350,1.0,4.0,91,0.00,,,0.00,Wunderground v.1.15,2013-01-25 13:41:00,
2013-01-25 07:46:00,24.2,22.0,29.76,NW,318,2.0,4.0,91,0.00,,,0.00,Wunderground v.1.15,2013-01-25 13:46:00,
2013-01-25 07:51:00,24.4,22.2,29.77,NW,323,3.0,5.0,91,0.00,,,0.00,Wunderground v.1.15,2013-01-25 13:51:00,
2013-01-25 07:56:00,24.4,22.2,29.76,NNW,341,1.0,5.0,91,0.00,,,0.00,Wunderground v.1.15,2013-01-25 13:56:00,
2013-01-25 08:01:00,24.3,22.1,29.76,NE,41,5.0,5.0,91,0.00,,,0.00,Wunderground v.1.15,2013-01-25 14:01:00,
2013-01-25 08:06:00,24.2,22.0,29.75,ENE,62,1.0,6.0,91,0.00,,,0.00,Wunderground v.1.15,2013-01-25 14:06:00,
2013-01-25 08:11:00,24.1,21.9,29.75,ENE,65,2.0,3.0,91,0.00,,,0.00,Wunderground v.1.15,2013-01-25 14:11:00,
2013-01-25 08:16:00,24.1,21.9,29.76,NE,44,0.0,3.0,91,0.00,,,0.00,Wunderground v.1.15,2013-01-25 14:16:00,
2013-01-25 08:21:00,24.3,22.1,29.75,East,83,0.0,1.0,91,0.00,,,0.00,Wunderground v.1.15,2013-01-25 14:21:00,
2013-01-25 08:26:00,24.4,22.2,29.75,ESE,119,0.0,2.0,91,0.00,,,0.00,Wunderground v.1.15,2013-01-25 14:26:00,
2013-01-25 08:31:00,24.5,22.2,29.76,ENE,67,0.0,1.0,91,0.00,,,0.00,Wunderground v.1.15,2013-01-25 14:31:00,
2013-01-25 08:36:00,24.5,22.2,29.76,SE,146,1.0,1.0,91,0.00,,,0.00,Wunderground v.1.15,2013-01-25 14:36:00,
2013-01-25 08:42:00,24.6,22.3,29.76,SSE,148,0.0,0.0,91,0.00,,,0.00,Wunderground v.1.15,2013-01-25 14:42:00,
2013-01-25 08:47:00,24.7,22.4,29.77,WNW,290,1.0,2.0,91,0.00,,,0.00,Wunderground v.1.15,2013-01-25 14:47:00,
2013-01-25 08:52:00,24.8,22.5,29.77,WNW,290,0.0,1.0,91,0.00,,,0.00,Wunderground v.1.15,2013-01-25 14:52:00,
2013-01-25 08:57:00,24.9,22.6,29.78,WNW,286,1.0,2.0,91,0.00,,,0.00,Wunderground v.1.15,2013-01-25 14:57:00,
2013-01-25 09:02:00,24.8,22.3,29.78,West,281,1.0,1.0,90,0.00,,,0.00,Wunderground v.1.15,2013-01-25 15:02:00,
2013-01-25 09:07:00,24.8,22.3,29.78,West,259,0.0,1.0,90,0.00,,,0.00,Wunderground v.1.15,2013-01-25 15:07:00,
2013-01-25 09:12:00,25.0,22.5,29.78,West,264,0.0,0.0,90,0.00,,,0.00,Wunderground v.1.15,2013-01-25 15:12:00,
2013-01-25 09:17:00,25.1,22.6,29.78,WNW,291,1.0,1.0,90,0.00,,,0.00,Wunderground v.1.15,2013-01-25 15:17:00,
2013-01-25 09:22:00,25.1,22.3,29.78,WNW,294,0.0,1.0,89,0.00,,,0.00,Wunderground v.1.15,2013-01-25 15:22:00,
2013-01-25 09:27:00,25.3,22.5,29.79,West,278,0.0,1.0,89,0.00,,,0.00,Wunderground v.1.15,2013-01-25 15:27:00,
2013-01-25 09:32:00,25.4,22.3,29.79,WNW,291,0.0,2.0,88,0.00,,,0.00,Wunderground v.1.15,2013-01-25 15:32:00,
2013-01-25 09:37:00,25.6,22.8,29.79,West,273,0.0,2.0,89,0.00,,,0.00,Wunderground v.1.15,2013-01-25 15:37:00,
2013-01-25 09:42:00,25.7,22.9,29.79,West,274,1.0,3.0,89,0.00,,,0.00,Wunderground v.1.15,2013-01-25 15:42:00,
2013-01-25 09:47:00,25.6,22.5,29.79,NNW,335,1.0,3.0,88,0.00,,,0.00,Wunderground v.1.15,2013-01-25 15:47:00,
2013-01-25 09:52:00,25.7,22.9,29.79,NNW,328,3.0,4.0,89,0.00,,,0.00,Wunderground v.1.15,2013-01-25 15:52:00,
2013-01-25 09:57:00,25.7,22.6,29.79,NW,321,2.0,4.0,88,0.00,,,0.00,Wunderground v.1.15,2013-01-25 15:57:00,
2013-01-25 10:02:00,25.7,22.6,29.80,WNW,293,0.0,4.0,88,0.00,,,0.00,Wunderground v.1.15,2013-01-25 16:02:00,
2013-01-25 10:07:00,25.7,22.6,29.80,NNW,331,2.0,4.0,88,0.00,,,0.00,Wunderground v.1.15,2013-01-25 16:07:00,
2013-01-25 10:12:00,26.0,22.9,29.80,NW,321,2.0,4.0,88,0.00,,,0.00,Wunderground v.1.15,2013-01-25 16:12:00,
2013-01-25 10:17:00,26.1,23.0,29.80,NNW,341,2.0,4.0,88,0.00,,,0.00,Wunderground v.1.15,2013-01-25 16:17:00,
2013-01-25 10:22:00,26.3,23.5,29.80,WNW,300,0.0,2.0,89,0.00,,,0.00,Wunderground v.1.15,2013-01-25 16:22:00,
2013-01-25 10:27:00,26.2,22.6,29.80,NW,321,3.0,4.0,86,0.00,,,0.00,Wunderground v.1.15,2013-01-25 16:27:00,
2013-01-25 10:32:00,26.2,22.9,29.80,WNW,303,0.0,3.0,87,0.00,,,0.00,Wunderground v.1.15,2013-01-25 16:32:00,
2013-01-25 10:37:00,26.6,23.3,29.80,West,281,1.0,3.0,87,0.00,,,0.00,Wunderground v.1.15,2013-01-25 16:37:00,
2013-01-25 10:42:00,27.0,23.9,29.80,WNW,288,0.0,1.0,88,0.00,,,0.00,Wunderground v.1.15,2013-01-25 16:42:00,
2013-01-25 10:47:00,27.5,24.1,29.80,NW,307,3.0,5.0,87,0.00,,,0.00,Wunderground v.1.15,2013-01-25 16:47:00,
2013-01-25 10:52:00,27.2,23.0,29.80,NW,323,3.0,4.0,84,0.00,,,0.00,Wunderground v.1.15,2013-01-25 16:52:00,
2013-01-25 10:57:00,27.2,22.7,29.80,WNW,302,2.0,4.0,83,0.00,,,0.00,Wunderground v.1.15,2013-01-25 16:57:00,
2013-01-25 11:02:00,27.3,23.1,29.80,WNW,297,5.0,5.0,84,0.00,,,0.00,Wunderground v.1.15,2013-01-25 17:02:00,
2013-01-25 11:07:00,27.3,22.8,29.80,WNW,297,2.0,5.0,83,0.00,,,0.00,Wunderground v.1.15,2013-01-25 17:07:00,
2013-01-25 11:12:00,27.7,22.6,29.80,WNW,297,5.0,6.0,81,0.00,,,0.00,Wunderground v.1.15,2013-01-25 17:12:00,
2013-01-25 11:17:00,27.9,22.8,29.80,NW,308,2.0,6.0,81,0.00,,,0.00,Wunderground v.1.15,2013-01-25 17:17:00,
2013-01-25 11:22:00,28.6,22.6,29.80,SW,229,3.0,6.0,78,0.00,,,0.00,Wunderground v.1.15,2013-01-25 17:22:00,
2013-01-25 11:27:00,28.7,23.6,29.79,NNW,340,7.0,7.0,81,0.00,,,0.00,Wunderground v.1.15,2013-01-25 17:27:00,
2013-01-25 11:32:00,28.7,22.4,29.79,WNW,292,3.0,6.0,77,0.00,,,0.00,Wunderground v.1.15,2013-01-25 17:32:00,
2013-01-25 11:37:00,29.0,23.0,29.79,NNW,335,0.0,6.0,78,0.00,,,0.00,Wunderground v.1.15,2013-01-25 17:37:00,
2013-01-25 11:42:00,29.3,22.7,29.79,WSW,248,2.0,7.0,76,0.00,,,0.00,Wunderground v.1.15,2013-01-25 17:42:00,
2013-01-25 11:47:00,29.1,21.8,29.79,WNW,301,0.0,10.0,74,0.00,,,0.00,Wunderground v.1.15,2013-01-25 17:47:00,
2013-01-25 11:52:00,29.5,22.9,29.79,WSW,256,6.0,6.0,76,0.00,,,0.00,Wunderground v.1.15,2013-01-25 17:52:00,
2013-01-25 11:57:00,29.8,23.2,29.78,WNW,301,0.0,7.0,76,0.00,,,0.00,Wunderground v.1.15,2013-01-25 17:57:00,
2013-01-25 12:02:00,30.4,23.1,29.78,WNW,291,3.0,3.0,74,0.00,,,0.00,Wunderground v.1.15,2013-01-25 18:02:00,
2013-01-25 12:07:00,30.2,22.9,29.78,North,8,2.0,5.0,74,0.00,,,0.00,Wunderground v.1.15,2013-01-25 18:07:00,
2013-01-25 12:12:00,30.5,22.9,29.77,NNE,14,1.0,6.0,73,0.00,,,0.00,Wunderground v.1.15,2013-01-25 18:12:00,
2013-01-25 12:17:00,31.3,23.6,29.78,WNW,293,0.0,6.0,73,0.00,,,0.00,Wunderground v.1.15,2013-01-25 18:17:00,
2013-01-25 12:22:00,32.3,24.3,29.78,North,8,4.0,7.0,72,0.00,,,0.00,Wunderground v.1.15,2013-01-25 18:22:00,
2013-01-25 12:27:00,32.1,23.1,29.77,NNE,18,0.0,8.0,69,0.00,,,0.00,Wunderground v.1.15,2013-01-25 18:27:00,
2013-01-25 12:32:00,32.1,23.4,29.77,NNW,339,2.0,3.0,70,0.00,,,0.00,Wunderground v.1.15,2013-01-25 18:32:00,
2013-01-25 12:37:00,32.8,24.8,29.77,WSW,242,1.0,5.0,72,0.00,,,0.00,Wunderground v.1.15,2013-01-25 18:37:00,
2013-01-25 12:42:00,33.6,24.2,29.76,North,358,4.0,6.0,68,0.00,,,0.00,Wunderground v.1.15,2013-01-25 18:42:00,
2013-01-25 12:47:00,33.2,23.1,29.76,NW,312,9.0,9.0,66,0.00,,,0.00,Wunderground v.1.15,2013-01-25 18:47:00,
2013-01-25 12:52:00,33.5,23.4,29.76,NNW,329,2.0,4.0,66,0.00,,,0.00,Wunderground v.1.15,2013-01-25 18:52:00,
2013-01-25 12:57:00,33.5,22.6,29.76,NW,316,5.0,7.0,64,0.00,,,0.00,Wunderground v.1.15,2013-01-25 18:57:00,
2013-01-25 13:02:00,33.6,23.1,29.76,WNW,287,2.0,6.0,65,0.00,,,0.00,Wunderground v.1.15,2013-01-25 19:02:00,
2013-01-25 13:07:00,33.6,23.1,29.75,NNW,331,3.0,9.0,65,0.00,,,0.00,Wunderground v.1.15,2013-01-25 19:07:00,
2013-01-25 13:12:00,33.6,23.1,29.76,NW,315,1.0,6.0,65,0.00,,,0.00,Wunderground v.1.15,2013-01-25 19:12:00,
2013-01-25 13:17:00,33.7,22.8,29.76,NW,305,4.0,6.0,64,0.00,,,0.00,Wunderground v.1.15,2013-01-25 19:17:00,
2013-01-25 13:22:00,33.8,23.3,29.75,NW,315,2.0,4.0,65,0.00,,,0.00,Wunderground v.1.15,2013-01-25 19:22:00,
2013-01-25 13:27:00,34.1,24.3,29.75,NNW,328,2.0,6.0,67,0.00,,,0.00,Wunderground v.1.15,2013-01-25 19:27:00,
2013-01-25 13:32:00,34.1,23.6,29.75,WNW,298,7.0,8.0,65,0.00,,,0.00,Wunderground v.1.15,2013-01-25 19:32:00,
2013-01-25 13:37:00,34.1,23.9,29.76,ENE,59,4.0,9.0,66,0.00,,,0.00,Wunderground v.1.15,2013-01-25 19:37:00,
2013-01-25 13:42:00,34.3,23.4,29.76,North,350,4.0,6.0,64,0.00,,,0.00,Wunderground v.1.15,2013-01-25 19:42:00,
2013-01-25 13:47:00,34.7,23.8,29.76,NNW,329,2.0,6.0,64,0.00,,,0.00,Wunderground v.1.15,2013-01-25 19:47:00,
2013-01-25 13:52:00,35.1,24.1,29.76,NW,307,0.0,3.0,64,0.00,,,0.00,Wunderground v.1.15,2013-01-25 19:52:00,
2013-01-25 13:57:00,34.9,23.9,29.76,WSW,248,2.0,6.0,64,0.00,,,0.00,Wunderground v.1.15,2013-01-25 19:57:00,
2013-01-25 14:02:00,35.0,23.7,29.76,WNW,297,6.0,6.0,63,0.00,,,0.00,Wunderground v.1.15,2013-01-25 20:02:00,
2013-01-25 14:07:00,34.8,23.5,29.76,WSW,257,2.0,7.0,63,0.00,,,0.00,Wunderground v.1.15,2013-01-25 20:07:00,
2013-01-25 14:12:00,35.0,23.7,29.76,WNW,297,1.0,3.0,63,0.00,,,0.00,Wunderground v.1.15,2013-01-25 20:12:00,
2013-01-25 14:17:00,35.4,24.0,29.76,WNW,292,2.0,7.0,63,0.00,,,0.00,Wunderground v.1.15,2013-01-25 20:17:00,
2013-01-25 14:22:00,36.0,24.6,29.76,NW,320,4.0,9.0,63,0.00,,,0.00,Wunderground v.1.15,2013-01-25 20:22:00,
2013-01-25 14:27:00,35.8,24.0,29.76,WSW,253,3.0,9.0,62,0.00,,,0.00,Wunderground v.1.15,2013-01-25 20:27:00,
2013-01-25 14:32:00,36.0,25.0,29.76,WSW,257,3.0,3.0,64,0.00,,,0.00,Wunderground v.1.15,2013-01-25 20:32:00,
2013-01-25 14:37:00,36.3,24.5,29.76,South,187,2.0,6.0,62,0.00,,,0.00,Wunderground v.1.15,2013-01-25 20:37:00,
2013-01-25 14:42:00,36.3,24.1,29.76,East,82,1.0,2.0,61,0.00,,,0.00,Wunderground v.1.15,2013-01-25 20:42:00,
2013-01-25 14:48:00,36.4,24.6,29.76,WSW,250,2.0,7.0,62,0.00,,,0.00,Wunderground v.1.15,2013-01-25 20:48:00,
2013-01-25 14:53:00,36.1,24.3,29.76,SW,217,3.0,6.0,62,0.00,,,0.00,Wunderground v.1.15,2013-01-25 20:53:00,
2013-01-25 14:58:00,36.1,24.3,29.77,West,259,2.0,6.0,62,0.00,,,0.00,Wunderground v.1.15,2013-01-25 20:58:00,
2013-01-25 15:03:00,35.8,24.0,29.77,West,263,3.0,6.0,62,0.00,,,0.00,Wunderground v.1.15,2013-01-25 21:03:00,
2013-01-25 15:08:00,36.0,25.0,29.77,WNW,301,1.0,7.0,64,0.00,,,0.00,Wunderground v.1.15,2013-01-25 21:08:00,
2013-01-25 15:13:00,36.6,24.8,29.77,NW,309,2.0,6.0,62,0.00,,,0.00,Wunderground v.1.15,2013-01-25 21:13:00,
2013-01-25 15:18:00,36.5,24.3,29.77,WNW,300,4.0,8.0,61,0.00,,,0.00,Wunderground v.1.15,2013-01-25 21:18:00,
2013-01-25 15:23:00,36.8,25.0,29.78,SW,235,0.0,6.0,62,0.00,,,0.00,Wunderground v.1.15,2013-01-25 21:23:00,
2013-01-25 15:28:00,36.8,24.6,29.78,WNW,290,2.0,8.0,61,0.00,,,0.00,Wunderground v.1.15,2013-01-25 21:28:00,
2013-01-25 15:33:00,36.5,24.7,29.78,WSW,253,3.0,3.0,62,0.00,,,0.00,Wunderground v.1.15,2013-01-25 21:33:00,
2013-01-25 15:38:00,36.6,25.2,29.78,SW,226,1.0,6.0,63,0.00,,,0.00,Wunderground v.1.15,2013-01-25 21:38:00,
2013-01-25 15:43:00,36.9,24.7,29.77,SW,222,4.0,8.0,61,0.00,,,0.00,Wunderground v.1.15,2013-01-25 21:43:00,
2013-01-25 15:48:00,37.1,24.9,29.77,West,260,3.0,8.0,61,0.00,,,0.00,Wunderground v.1.15,2013-01-25 21:48:00,
2013-01-25 15:53:00,37.0,24.8,29.77,WSW,248,3.0,5.0,61,0.00,,,0.00,Wunderground v.1.15,2013-01-25 21:53:00,
2013-01-25 15:58:00,36.9,24.7,29.77,West,280,3.0,5.0,61,0.00,,,0.00,Wunderground v.1.15,2013-01-25 21:58:00,
2013-01-25 16:03:00,36.6,24.8,29.77,West,276,0.0,4.0,62,0.00,,,0.00,Wunderground v.1.15,2013-01-25 22:03:00,
2013-01-25 16:08:00,36.6,24.8,29.77,WSW,248,1.0,4.0,62,0.00,,,0.00,Wunderground v.1.15,2013-01-25 22:08:00,
2013-01-25 16:13:00,36.8,25.0,29.76,WSW,239,0.0,2.0,62,0.00,,,0.00,Wunderground v.1.15,2013-01-25 22:13:00,
2013-01-25 16:18:00,36.8,25.0,29.76,WSW,252,0.0,4.0,62,0.00,,,0.00,Wunderground v.1.15,2013-01-25 22:18:00,
2013-01-25 16:23:00,37.0,25.2,29.76,WSW,251,0.0,3.0,62,0.00,,,0.00,Wunderground v.1.15,2013-01-25 22:23:00,
2013-01-25 16:28:00,37.0,25.6,29.76,SW,214,5.0,7.0,63,0.00,,,0.00,Wunderground v.1.15,2013-01-25 22:28:00,
2013-01-25 16:33:00,36.7,24.9,29.77,SW,230,5.0,7.0,62,0.00,,,0.00,Wunderground v.1.15,2013-01-25 22:33:00,
2013-01-25 16:38:00,36.3,24.9,29.77,SW,225,3.0,7.0,63,0.00,,,0.00,Wunderground v.1.15,2013-01-25 22:38:00,
2013-01-25 16:43:00,36.1,25.1,29.77,WSW,258,3.0,7.0,64,0.00,,,0.00,Wunderground v.1.15,2013-01-25 22:43:00,
2013-01-25 16:48:00,35.9,25.3,29.77,SW,221,4.0,7.0,65,0.00,,,0.00,Wunderground v.1.15,2013-01-25 22:48:00,
2013-01-25 16:53:00,35.6,24.6,29.77,WSW,252,3.0,4.0,64,0.00,,,0.00,Wunderground v.1.15,2013-01-25 22:53:00,
2013-01-25 16:58:00,35.5,24.9,29.78,WSW,246,1.0,4.0,65,0.00,,,0.00,Wunderground v.1.15,2013-01-25 22:58:00,
2013-01-25 17:03:00,35.2,24.6,29.78,SW,228,2.0,5.0,65,0.00,,,0.00,Wunderground v.1.15,2013-01-25 23:03:00,
2013-01-25 17:08:00,35.1,24.9,29.79,WSW,243,0.0,5.0,66,0.00,,,0.00,Wunderground v.1.15,2013-01-25 23:08:00,
2013-01-25 17:13:00,34.9,24.7,29.78,WSW,248,3.0,6.0,66,0.00,,,0.00,Wunderground v.1.15,2013-01-25 23:13:00,
2013-01-25 17:18:00,34.7,24.9,29.78,SW,229,4.0,6.0,67,0.00,,,0.00,Wunderground v.1.15,2013-01-25 23:18:00,
2013-01-25 17:23:00,34.5,25.0,29.79,SW,224,2.0,4.0,68,0.00,,,0.00,Wunderground v.1.15,2013-01-25 23:23:00,
2013-01-25 17:28:00,34.3,24.8,29.78,SSW,210,2.0,4.0,68,0.00,,,0.00,Wunderground v.1.15,2013-01-25 23:28:00,
2013-01-25 17:33:00,34.1,25.0,29.79,SW,221,2.0,3.0,69,0.00,,,0.00,Wunderground v.1.15,2013-01-25 23:33:00,
2013-01-25 17:39:00,33.9,24.8,29.79,SW,217,1.0,3.0,69,0.00,,,0.00,Wunderground v.1.15,2013-01-25 23:39:00,
2013-01-25 17:44:00,33.7,25.0,29.79,SSW,211,2.0,3.0,70,0.00,,,0.00,Wunderground v.1.15,2013-01-25 23:44:00,
2013-01-25 17:49:00,33.5,24.8,29.79,SSW,212,1.0,3.0,70,0.00,,,0.00,Wunderground v.1.15,2013-01-25 23:49:00,
2013-01-25 17:54:00,33.4,24.7,29.79,SW,225,1.0,2.0,70,0.00,,,0.00,Wunderground v.1.15,2013-01-25 23:54:00,
2013-01-25 17:59:00,33.2,24.8,29.80,SW,218,1.0,2.0,71,0.00,,,0.00,Wunderground v.1.15,2013-01-25 23:59:00,
2013-01-25 18:04:00,33.1,24.7,29.80,SW,218,2.0,2.0,71,0.00,,,0.00,Wunderground v.1.15,2013-01-26 00:04:00,
2013-01-25 18:09:00,32.9,24.5,29.80,SSW,212,2.0,2.0,71,0.00,,,0.00,Wunderground v.1.15,2013-01-26 00:09:00,
2013-01-25 18:14:00,32.8,24.8,29.81,SSW,195,1.0,2.0,72,0.00,,,0.00,Wunderground v.1.15,2013-01-26 00:14:00,
2013-01-25 18:19:00,32.5,24.8,29.81,SSW,210,1.0,5.0,73,0.00,,,0.00,Wunderground v.1.15,2013-01-26 00:19:00,
2013-01-25 18:24:00,32.1,24.7,29.81,SW,221,3.0,4.0,74,0.00,,,0.00,Wunderground v.1.15,2013-01-26 00:24:00,
2013-01-25 18:29:00,31.9,24.9,29.81,SW,215,1.0,4.0,75,0.00,,,0.00,Wunderground v.1.15,2013-01-26 00:29:00,
2013-01-25 18:34:00,31.7,24.7,29.82,SSW,211,1.0,3.0,75,0.00,,,0.00,Wunderground v.1.15,2013-01-26 00:34:00,
2013-01-25 18:39:00,31.6,24.9,29.81,South,169,1.0,2.0,76,0.00,,,0.00,Wunderground v.1.15,2013-01-26 00:39:00,
2013-01-25 18:45:00,31.4,24.7,29.81,SW,218,1.0,2.0,76,0.00,,,0.00,Wunderground v.1.15,2013-01-26 00:45:00,
2013-01-25 18:50:00,31.3,24.6,29.81,SSW,211,1.0,1.0,76,0.00,,,0.00,Wunderground v.1.15,2013-01-26 00:50:00,
2013-01-25 18:55:00,31.2,24.8,29.81,South,173,0.0,2.0,77,0.00,,,0.00,Wunderground v.1.15,2013-01-26 00:55:00,
2013-01-25 19:00:00,31.0,24.6,29.81,SSW,205,2.0,2.0,77,0.00,,,0.00,Wunderground v.1.15,2013-01-26 01:00:00,
2013-01-25 19:05:00,30.9,24.5,29.81,SW,217,2.0,3.0,77,0.00,,,0.00,Wunderground v.1.15,2013-01-26 01:05:00,
2013-01-25 19:10:00,30.8,24.7,29.81,South,170,1.0,2.0,78,0.00,,,0.00,Wunderground v.1.15,2013-01-26 01:10:00,
2013-01-25 19:15:00,30.6,24.6,29.81,SW,218,0.0,2.0,78,0.00,,,0.00,Wunderground v.1.15,2013-01-26 01:15:00,
2013-01-25 19:20:00,30.4,24.7,29.81,SSW,203,1.0,1.0,79,0.00,,,0.00,Wunderground v.1.15,2013-01-26 01:20:00,
2013-01-25 19:25:00,30.3,24.6,29.81,SSW,212,1.0,3.0,79,0.00,,,0.00,Wunderground v.1.15,2013-01-26 01:25:00,
2013-01-25 19:30:00,30.2,24.8,29.81,SSW,198,2.0,2.0,80,0.00,,,0.00,Wunderground v.1.15,2013-01-26 01:30:00,
2013-01-25 19:35:00,30.1,24.7,29.82,SSW,198,0.0,2.0,80,0.00,,,0.00,Wunderground v.1.15,2013-01-26 01:35:00,
2013-01-25 19:40:00,30.1,24.7,29.82,SSW,204,1.0,3.0,80,0.00,,,0.00,Wunderground v.1.15,2013-01-26 01:40:00,
2013-01-25 19:45:00,29.9,24.5,29.82,SSE,168,0.0,3.0,80,0.00,,,0.00,Wunderground v.1.15,2013-01-26 01:45:00,
2013-01-25 19:50:00,29.9,24.5,29.82,SSW,211,0.0,2.0,80,0.00,,,0.00,Wunderground v.1.15,2013-01-26 01:50:00,
2013-01-25 19:55:00,29.9,24.5,29.82,SSW,212,0.0,3.0,80,0.00,,,0.00,Wunderground v.1.15,2013-01-26 01:55:00,
2013-01-25 20:00:00,29.8,24.4,29.81,SE,138,0.0,1.0,80,0.00,,,0.00,Wunderground v.1.15,2013-01-26 02:00:00,
2013-01-25 20:05:00,29.7,24.3,29.81,South,181,2.0,2.0,80,0.00,,,0.00,Wunderground v.1.15,2013-01-26 02:05:00,
2013-01-25 20:10:00,29.6,24.2,29.81,SW,215,1.0,1.0,80,0.00,,,0.00,Wunderground v.1.15,2013-01-26 02:10:00,
2013-01-25 20:15:00,29.5,24.4,29.81,SW,215,1.0,2.0,81,0.00,,,0.00,Wunderground v.1.15,2013-01-26 02:15:00,
2013-01-25 20:20:00,29.3,24.2,29.81,SSW,208,1.0,1.0,81,0.00,,,0.00,Wunderground v.1.15,2013-01-26 02:20:00,
2013-01-25 20:25:00,29.2,24.1,29.81,South,188,0.0,2.0,81,0.00,,,0.00,Wunderground v.1.15,2013-01-26 02:25:00,
2013-01-25 20:30:00,29.1,24.3,29.81,SSW,210,1.0,2.0,82,0.00,,,0.00,Wunderground v.1.15,2013-01-26 02:30:00,
2013-01-25 20:36:00,28.9,24.1,29.82,SSW,198,0.0,3.0,82,0.00,,,0.00,Wunderground v.1.15,2013-01-26 02:36:00,
2013-01-25 20:40:00,28.9,24.1,29.81,SW,214,0.0,2.0,82,0.00,,,0.00,Wunderground v.1.15,2013-01-26 02:40:00,
2013-01-25 20:46:00,28.8,24.0,29.82,SSW,210,1.0,2.0,82,0.00,,,0.00,Wunderground v.1.15,2013-01-26 02:46:00,
2013-01-25 20:51:00,28.7,24.2,29.82,SSW,198,0.0,1.0,83,0.00,,,0.00,Wunderground v.1.15,2013-01-26 02:51:00,
2013-01-25 20:56:00,28.6,24.1,29.82,SSW,198,0.0,1.0,83,0.00,,,0.00,Wunderground v.1.15,2013-01-26 02:56:00,
2013-01-25 21:01:00,28.5,24.0,29.82,SSW,210,0.0,0.0,83,0.00,,,0.00,Wunderground v.1.15,2013-01-26 03:01:00,
2013-01-25 21:06:00,28.5,24.0,29.82,SSW,205,0.0,0.0,83,0.00,,,0.00,Wunderground v.1.15,2013-01-26 03:06:00,
2013-01-25 21:11:00,28.4,23.9,29.82,SW,215,0.0,0.0,83,0.00,,,0.00,Wunderground v.1.15,2013-01-26 03:11:00,
2013-01-25 21:16:00,28.2,24.0,29.82,SSW,205,0.0,0.0,84,0.00,,,0.00,Wunderground v.1.15,2013-01-26 03:16:00,
2013-01-25 21:21:00,28.1,23.9,29.82,SSW,211,0.0,0.0,84,0.00,,,0.00,Wunderground v.1.15,2013-01-26 03:21:00,
2013-01-25 21:26:00,28.1,23.9,29.82,SSW,207,0.0,0.0,84,0.00,,,0.00,Wunderground v.1.15,2013-01-26 03:26:00,
2013-01-25 21:31:00,28.0,23.8,29.82,SSW,210,1.0,1.0,84,0.00,,,0.00,Wunderground v.1.15,2013-01-26 03:31:00,
2013-01-25 21:36:00,27.9,23.7,29.82,SSW,205,0.0,2.0,84,0.00,,,0.00,Wunderground v.1.15,2013-01-26 03:36:00,
2013-01-25 21:41:00,27.9,23.7,29.82,SW,235,1.0,1.0,84,0.00,,,0.00,Wunderground v.1.15,2013-01-26 03:41:00,
2013-01-25 21:46:00,27.7,23.8,29.82,SSW,204,2.0,2.0,85,0.00,,,0.00,Wunderground v.1.15,2013-01-26 03:46:00,
2013-01-25 21:51:00,27.6,23.7,29.83,SSW,194,0.0,2.0,85,0.00,,,0.00,Wunderground v.1.15,2013-01-26 03:51:00,
2013-01-25 21:56:00,27.7,23.8,29.83,SSW,212,1.0,2.0,85,0.00,,,0.00,Wunderground v.1.15,2013-01-26 03:56:00,
2013-01-25 22:01:00,27.7,23.8,29.83,SW,214,1.0,2.0,85,0.00,,,0.00,Wunderground v.1.15,2013-01-26 04:01:00,
2013-01-25 22:06:00,27.7,23.8,29.83,SSW,195,0.0,2.0,85,0.00,,,0.00,Wunderground v.1.15,2013-01-26 04:06:00,
2013-01-25 22:11:00,27.6,23.7,29.83,SW,218,1.0,1.0,85,0.00,,,0.00,Wunderground v.1.15,2013-01-26 04:11:00,
2013-01-25 22:16:00,27.5,23.6,29.83,SW,226,1.0,1.0,85,0.00,,,0.00,Wunderground v.1.15,2013-01-26 04:16:00,
2013-01-25 22:21:00,27.5,23.6,29.84,SW,225,0.0,0.0,85,0.00,,,0.00,Wunderground v.1.15,2013-01-26 04:21:00,
2013-01-25 22:26:00,27.5,23.6,29.84,SW,218,0.0,0.0,85,0.00,,,0.00,Wunderground v.1.15,2013-01-26 04:26:00,
2013-01-25 22:31:00,27.6,23.7,29.84,SSW,203,0.0,1.0,85,0.00,,,0.00,Wunderground v.1.15,2013-01-26 04:31:00,
2013-01-25 22:36:00,27.5,23.6,29.84,SSW,197,0.0,2.0,85,0.00,,,0.00,Wunderground v.1.15,2013-01-26 04:36:00,
2013-01-25 22:41:00,27.4,23.5,29.85,SW,219,0.0,2.0,85,0.00,,,0.00,Wunderground v.1.15,2013-01-26 04:41:00,
2013-01-25 22:46:00,27.3,23.4,29.85,SW,215,0.0,2.0,85,0.00,,,0.00,Wunderground v.1.15,2013-01-26 04:46:00,
2013-01-25 22:51:00,27.2,23.3,29.85,SW,215,0.0,0.0,85,0.00,,,0.00,Wunderground v.1.15,2013-01-26 04:51:00,
2013-01-25 22:56:00,27.1,23.2,29.85,SW,214,0.0,0.0,85,0.00,,,0.00,Wunderground v.1.15,2013-01-26 04:56:00,
2013-01-25 23:00:00,27.1,23.5,29.86,SW,215,0.0,0.0,86,0.00,,,0.00,Wunderground v.1.15,2013-01-26 05:00:00,
2013-01-25 23:01:00,27.0,23.1,29.86,SW,215,0.0,0.0,85,0.00,,,0.00,Wunderground v.1.15,2013-01-26 05:01:00,
2013-01-25 23:06:00,27.1,23.5,29.86,SW,215,0.0,0.0,86,0.00,,,0.00,Wunderground v.1.15,2013-01-26 05:06:00,
2013-01-25 23:11:00,27.0,23.4,29.86,SW,215,0.0,0.0,86,0.00,,,0.00,Wunderground v.1.15,2013-01-26 05:11:00,
2013-01-25 23:16:00,26.8,23.2,29.86,SW,219,0.0,0.0,86,0.00,,,0.00,Wunderground v.1.15,2013-01-26 05:16:00,
2013-01-25 23:21:00,26.8,23.2,29.86,SW,219,0.0,0.0,86,0.00,,,0.00,Wunderground v.1.15,2013-01-26 05:21:00,
2013-01-25 23:26:00,27.1,23.7,29.87,SW,219,0.0,0.0,87,0.00,,,0.00,Wunderground v.1.15,2013-01-26 05:26:00,
2013-01-25 23:31:00,27.3,23.7,29.87,SW,219,0.0,0.0,86,0.00,,,0.00,Wunderground v.1.15,2013-01-26 05:31:00,
2013-01-25 23:36:00,27.3,23.4,29.87,SW,219,0.0,0.0,85,0.00,,,0.00,Wunderground v.1.15,2013-01-26 05:36:00,
2013-01-25 23:41:00,27.2,23.6,29.87,SW,221,0.0,0.0,86,0.00,,,0.00,Wunderground v.1.15,2013-01-26 05:41:00,
2013-01-25 23:46:00,27.3,23.7,29.87,West,281,1.0,1.0,86,0.00,,,0.00,Wunderground v.1.15,2013-01-26 05:46:00,
2013-01-25 23:51:00,27.4,23.5,29.87,WNW,284,0.0,0.0,85,0.00,,,0.00,Wunderground v.1.15,2013-01-26 05:51:00,
2013-01-25 23:56:00,27.4,23.5,29.87,West,277,0.0,1.0,85,0.00,,,0.00,Wunderground v.1.15,2013-01-26 05:56:00,